Archival Weather

NSFA McMurdo Sound

NSFA McMurdo Sound, Antarctica (NZCM)

Report from: Friday, September 23, 2022 10:50 PM UTC
Current time: Sunday, December 4, 2022 11:55 AM UTC

Current weather
Weather history
Weather forecast

Present weatherLight snow, freezing fog
Temperature-14.0°C (6.8°F)
Wind chill-24.4°C (-11.8°F)
Dew point-16.6°C (2.1°F)
Winds 15 kts (7.7 m/s, 17.3 mph) Vrb
Wind gusts 24 kts (12.3 m/s, 27.6 mph)
Winds variableWinds variable from East (80°) to South (180°)
Peak wind 28 kts (14.4 m/s, 32.2 mph) Southeast (140°) at 17:00
Visibility0.2 mi. (0.4 km)
Clouds Ceiling: Vertical visibility 500 ft. (152 m)
Altimeter28.66 in.Hg (971 mB)
Precip. events Snow ended 10:30 PM
Snow began 10:50 PM
Relative humidity81 %
Density altitude-2,128 ft. (-649 m)
Sea-level pressure107.1 kPa (1071 mB, 31.63 in.Hg)
Remarks Fully automated report
System requires maintenance
Special weather observation
Automated weather observing station with precipitation discriminator
Flight conditions Low Instrument Meteorological Conditions
Raw dataSPECI NZCM 232250Z AUTO 13015G24KT 080V180 0400 -SN FZFG VV005 M14/M17 A2866 RMK AO2 PK WND 14028/2200 SNE2230B2250 SLP711 T11401166 $
An error has occurred. This application may no longer respond until reloaded. Reload 🗙